sensor_id;sensor_type;location;lat;lon;timestamp;P1;durP1;ratioP1;P2;durP2;ratioP2
2624;SDS011;1322;53.256;10.386;2023-05-10T00:01:26;4.40;;;3.87;;
2624;SDS011;1322;53.256;10.386;2023-05-10T00:03:52;6.00;;;4.07;;
2624;SDS011;1322;53.256;10.386;2023-05-10T00:06:18;4.90;;;3.63;;
2624;SDS011;1322;53.256;10.386;2023-05-10T00:08:45;5.90;;;3.70;;
2624;SDS011;1322;53.256;10.386;2023-05-10T00:11:11;4.20;;;3.80;;
2624;SDS011;1322;53.256;10.386;2023-05-10T00:13:37;3.83;;;3.53;;
2624;SDS011;1322;53.256;10.386;2023-05-10T00:16:03;5.23;;;3.77;;
2624;SDS011;1322;53.256;10.386;2023-05-10T00:18:29;6.40;;;3.90;;
2624;SDS011;1322;53.256;10.386;2023-05-10T00:20:55;7.63;;;3.80;;
2624;SDS011;1322;53.256;10.386;2023-05-10T00:23:21;4.70;;;3.60;;
2624;SDS011;1322;53.256;10.386;2023-05-10T00:25:47;5.30;;;3.50;;
2624;SDS011;1322;53.256;10.386;2023-05-10T00:28:13;6.10;;;3.90;;
2624;SDS011;1322;53.256;10.386;2023-05-10T00:30:39;5.40;;;4.40;;
2624;SDS011;1322;53.256;10.386;2023-05-10T00:33:05;5.83;;;3.67;;
2624;SDS011;1322;53.256;10.386;2023-05-10T00:35:31;5.00;;;4.50;;
2624;SDS011;1322;53.256;10.386;2023-05-10T00:37:57;4.53;;;4.13;;
2624;SDS011;1322;53.256;10.386;2023-05-10T00:40:23;5.40;;;4.07;;
2624;SDS011;1322;53.256;10.386;2023-05-10T00:42:49;7.60;;;5.23;;
2624;SDS011;1322;53.256;10.386;2023-05-10T00:45:15;4.60;;;3.80;;
2624;SDS011;1322;53.256;10.386;2023-05-10T00:47:41;4.67;;;4.10;;
2624;SDS011;1322;53.256;10.386;2023-05-10T00:50:07;4.77;;;4.30;;
2624;SDS011;1322;53.256;10.386;2023-05-10T00:52:34;4.13;;;3.73;;
2624;SDS011;1322;53.256;10.386;2023-05-10T00:55:00;4.10;;;3.70;;
2624;SDS011;1322;53.256;10.386;2023-05-10T00:57:26;9.23;;;4.40;;
2624;SDS011;1322;53.256;10.386;2023-05-10T00:59:52;6.23;;;3.93;;
2624;SDS011;1322;53.256;10.386;2023-05-10T01:02:18;4.83;;;3.80;;
2624;SDS011;1322;53.256;10.386;2023-05-10T01:04:44;6.83;;;3.97;;
2624;SDS011;1322;53.256;10.386;2023-05-10T01:07:11;6.57;;;4.20;;
2624;SDS011;1322;53.256;10.386;2023-05-10T01:09:37;6.50;;;4.00;;
2624;SDS011;1322;53.256;10.386;2023-05-10T01:12:04;6.40;;;3.83;;
2624;SDS011;1322;53.256;10.386;2023-05-10T01:14:31;6.00;;;4.00;;
2624;SDS011;1322;53.256;10.386;2023-05-10T01:16:57;4.30;;;3.53;;
2624;SDS011;1322;53.256;10.386;2023-05-10T01:19:27;5.27;;;4.30;;
2624;SDS011;1322;53.256;10.386;2023-05-10T01:35:21;5.63;;;3.63;;
2624;SDS011;1322;53.256;10.386;2023-05-10T01:38:04;3.83;;;3.53;;
2624;SDS011;1322;53.256;10.386;2023-05-10T01:43:30;9.13;;;4.33;;
2624;SDS011;1322;53.256;10.386;2023-05-10T01:46:09;4.70;;;3.83;;
2624;SDS011;1322;53.256;10.386;2023-05-10T01:48:47;7.70;;;4.07;;
2624;SDS011;1322;53.256;10.386;2023-05-10T01:51:15;6.03;;;4.33;;
2624;SDS011;1322;53.256;10.386;2023-05-10T01:53:45;4.40;;;3.53;;
2624;SDS011;1322;53.256;10.386;2023-05-10T01:56:12;4.83;;;3.80;;
2624;SDS011;1322;53.256;10.386;2023-05-10T01:58:40;8.57;;;4.47;;
2624;SDS011;1322;53.256;10.386;2023-05-10T02:01:10;6.43;;;4.43;;
2624;SDS011;1322;53.256;10.386;2023-05-10T02:03:37;12.47;;;4.30;;
2624;SDS011;1322;53.256;10.386;2023-05-10T02:06:05;4.47;;;3.50;;
2624;SDS011;1322;53.256;10.386;2023-05-10T02:08:32;3.70;;;3.13;;
2624;SDS011;1322;53.256;10.386;2023-05-10T02:11:01;5.53;;;4.00;;
2624;SDS011;1322;53.256;10.386;2023-05-10T02:13:27;4.90;;;3.70;;
2624;SDS011;1322;53.256;10.386;2023-05-10T02:15:57;3.93;;;3.60;;
2624;SDS011;1322;53.256;10.386;2023-05-10T02:18:23;5.50;;;4.83;;
2624;SDS011;1322;53.256;10.386;2023-05-10T02:20:50;7.60;;;4.13;;
2624;SDS011;1322;53.256;10.386;2023-05-10T02:23:18;5.93;;;4.63;;
2624;SDS011;1322;53.256;10.386;2023-05-10T02:25:46;4.40;;;4.00;;
2624;SDS011;1322;53.256;10.386;2023-05-10T02:28:13;3.93;;;3.50;;
2624;SDS011;1322;53.256;10.386;2023-05-10T02:30:40;5.30;;;3.80;;
2624;SDS011;1322;53.256;10.386;2023-05-10T02:33:07;4.37;;;3.97;;
2624;SDS011;1322;53.256;10.386;2023-05-10T02:35:33;4.43;;;4.03;;
2624;SDS011;1322;53.256;10.386;2023-05-10T02:38:00;6.60;;;4.13;;
2624;SDS011;1322;53.256;10.386;2023-05-10T02:40:27;5.43;;;3.80;;
2624;SDS011;1322;53.256;10.386;2023-05-10T02:42:54;4.97;;;3.90;;
2624;SDS011;1322;53.256;10.386;2023-05-10T02:45:23;6.20;;;4.70;;
2624;SDS011;1322;53.256;10.386;2023-05-10T02:47:53;5.63;;;3.30;;
2624;SDS011;1322;53.256;10.386;2023-05-10T02:50:19;7.93;;;3.70;;
2624;SDS011;1322;53.256;10.386;2023-05-10T02:52:46;4.60;;;3.70;;
2624;SDS011;1322;53.256;10.386;2023-05-10T02:55:14;5.00;;;4.50;;
2624;SDS011;1322;53.256;10.386;2023-05-10T02:57:43;10.57;;;4.20;;
2624;SDS011;1322;53.256;10.386;2023-05-10T03:00:15;4.87;;;4.00;;
2624;SDS011;1322;53.256;10.386;2023-05-10T03:02:42;5.00;;;3.90;;
2624;SDS011;1322;53.256;10.386;2023-05-10T03:05:08;7.43;;;4.47;;
2624;SDS011;1322;53.256;10.386;2023-05-10T03:07:34;7.73;;;3.80;;
2624;SDS011;1322;53.256;10.386;2023-05-10T03:10:00;4.67;;;3.93;;
2624;SDS011;1322;53.256;10.386;2023-05-10T03:15:24;3.60;;;3.00;;
2624;SDS011;1322;53.256;10.386;2023-05-10T03:18:25;6.93;;;4.13;;
2624;SDS011;1322;53.256;10.386;2023-05-10T03:20:59;9.87;;;4.80;;
2624;SDS011;1322;53.256;10.386;2023-05-10T03:23:35;5.03;;;4.47;;
2624;SDS011;1322;53.256;10.386;2023-05-10T03:26:05;6.43;;;4.03;;
2624;SDS011;1322;53.256;10.386;2023-05-10T03:28:33;3.90;;;3.50;;
2624;SDS011;1322;53.256;10.386;2023-05-10T03:31:00;4.80;;;4.20;;
2624;SDS011;1322;53.256;10.386;2023-05-10T03:33:29;4.53;;;3.87;;
2624;SDS011;1322;53.256;10.386;2023-05-10T03:35:55;5.53;;;4.10;;
2624;SDS011;1322;53.256;10.386;2023-05-10T03:38:21;5.30;;;4.47;;
2624;SDS011;1322;53.256;10.386;2023-05-10T03:40:47;4.17;;;3.77;;
2624;SDS011;1322;53.256;10.386;2023-05-10T03:43:13;7.13;;;4.23;;
2624;SDS011;1322;53.256;10.386;2023-05-10T03:45:39;5.77;;;4.43;;
2624;SDS011;1322;53.256;10.386;2023-05-10T03:48:05;5.80;;;4.37;;
2624;SDS011;1322;53.256;10.386;2023-05-10T03:50:31;5.80;;;4.50;;
2624;SDS011;1322;53.256;10.386;2023-05-10T03:52:57;8.20;;;5.07;;
2624;SDS011;1322;53.256;10.386;2023-05-10T03:55:23;6.60;;;4.83;;
2624;SDS011;1322;53.256;10.386;2023-05-10T03:57:49;5.90;;;4.30;;
2624;SDS011;1322;53.256;10.386;2023-05-10T04:00:16;5.73;;;4.60;;
2624;SDS011;1322;53.256;10.386;2023-05-10T04:02:42;4.83;;;3.83;;
2624;SDS011;1322;53.256;10.386;2023-05-10T04:05:08;5.70;;;4.10;;
2624;SDS011;1322;53.256;10.386;2023-05-10T04:07:35;6.10;;;4.07;;
2624;SDS011;1322;53.256;10.386;2023-05-10T04:10:01;6.73;;;4.50;;
2624;SDS011;1322;53.256;10.386;2023-05-10T04:12:26;4.93;;;4.33;;
2624;SDS011;1322;53.256;10.386;2023-05-10T04:14:52;6.27;;;5.00;;
2624;SDS011;1322;53.256;10.386;2023-05-10T04:17:19;6.53;;;3.67;;
2624;SDS011;1322;53.256;10.386;2023-05-10T04:19:44;6.10;;;4.60;;
2624;SDS011;1322;53.256;10.386;2023-05-10T04:22:10;5.77;;;3.70;;
2624;SDS011;1322;53.256;10.386;2023-05-10T04:24:36;7.00;;;4.10;;
2624;SDS011;1322;53.256;10.386;2023-05-10T04:27:02;6.83;;;4.17;;
2624;SDS011;1322;53.256;10.386;2023-05-10T04:29:28;6.63;;;4.20;;
2624;SDS011;1322;53.256;10.386;2023-05-10T04:31:54;5.77;;;4.30;;
2624;SDS011;1322;53.256;10.386;2023-05-10T04:34:21;4.17;;;3.53;;
2624;SDS011;1322;53.256;10.386;2023-05-10T04:36:47;6.83;;;4.10;;
2624;SDS011;1322;53.256;10.386;2023-05-10T04:39:13;6.20;;;4.10;;
2624;SDS011;1322;53.256;10.386;2023-05-10T04:41:39;4.70;;;4.23;;
2624;SDS011;1322;53.256;10.386;2023-05-10T04:44:05;5.90;;;4.23;;
2624;SDS011;1322;53.256;10.386;2023-05-10T04:46:31;5.33;;;4.17;;
2624;SDS011;1322;53.256;10.386;2023-05-10T04:48:57;5.13;;;4.30;;
2624;SDS011;1322;53.256;10.386;2023-05-10T04:51:23;9.40;;;5.10;;
2624;SDS011;1322;53.256;10.386;2023-05-10T04:53:49;8.40;;;4.20;;
2624;SDS011;1322;53.256;10.386;2023-05-10T04:56:15;7.03;;;4.70;;
2624;SDS011;1322;53.256;10.386;2023-05-10T04:58:41;5.07;;;4.30;;
2624;SDS011;1322;53.256;10.386;2023-05-10T05:01:08;7.90;;;4.23;;
2624;SDS011;1322;53.256;10.386;2023-05-10T05:03:35;4.87;;;4.20;;
2624;SDS011;1322;53.256;10.386;2023-05-10T05:06:01;7.67;;;4.70;;
2624;SDS011;1322;53.256;10.386;2023-05-10T05:08:27;4.90;;;3.57;;
2624;SDS011;1322;53.256;10.386;2023-05-10T05:10:53;6.27;;;3.87;;
2624;SDS011;1322;53.256;10.386;2023-05-10T05:13:19;4.20;;;3.60;;
2624;SDS011;1322;53.256;10.386;2023-05-10T05:15:45;5.03;;;3.63;;
2624;SDS011;1322;53.256;10.386;2023-05-10T05:18:11;5.37;;;3.80;;
2624;SDS011;1322;53.256;10.386;2023-05-10T05:20:37;4.87;;;4.37;;
2624;SDS011;1322;53.256;10.386;2023-05-10T05:23:03;5.50;;;4.43;;
2624;SDS011;1322;53.256;10.386;2023-05-10T05:25:29;9.17;;;3.70;;
2624;SDS011;1322;53.256;10.386;2023-05-10T05:27:55;4.20;;;3.67;;
2624;SDS011;1322;53.256;10.386;2023-05-10T05:30:21;4.50;;;3.77;;
2624;SDS011;1322;53.256;10.386;2023-05-10T05:32:47;5.83;;;4.37;;
2624;SDS011;1322;53.256;10.386;2023-05-10T05:35:13;7.90;;;5.63;;
2624;SDS011;1322;53.256;10.386;2023-05-10T05:37:39;5.40;;;4.17;;
2624;SDS011;1322;53.256;10.386;2023-05-10T05:40:05;4.40;;;3.53;;
2624;SDS011;1322;53.256;10.386;2023-05-10T05:42:32;5.10;;;4.60;;
2624;SDS011;1322;53.256;10.386;2023-05-10T05:44:58;4.43;;;4.03;;
2624;SDS011;1322;53.256;10.386;2023-05-10T05:47:24;5.13;;;4.17;;
2624;SDS011;1322;53.256;10.386;2023-05-10T05:49:50;7.50;;;4.90;;
2624;SDS011;1322;53.256;10.386;2023-05-10T05:52:16;10.90;;;5.37;;
2624;SDS011;1322;53.256;10.386;2023-05-10T05:54:42;5.00;;;4.13;;
2624;SDS011;1322;53.256;10.386;2023-05-10T05:57:08;5.67;;;3.93;;
2624;SDS011;1322;53.256;10.386;2023-05-10T05:59:34;5.40;;;4.10;;
2624;SDS011;1322;53.256;10.386;2023-05-10T06:02:00;8.20;;;3.80;;
2624;SDS011;1322;53.256;10.386;2023-05-10T06:04:26;5.93;;;4.20;;
2624;SDS011;1322;53.256;10.386;2023-05-10T06:06:52;4.07;;;3.67;;
2624;SDS011;1322;53.256;10.386;2023-05-10T06:09:18;5.63;;;4.20;;
2624;SDS011;1322;53.256;10.386;2023-05-10T06:11:45;5.27;;;4.23;;
2624;SDS011;1322;53.256;10.386;2023-05-10T06:14:11;5.40;;;4.00;;
2624;SDS011;1322;53.256;10.386;2023-05-10T06:16:37;4.33;;;3.93;;
2624;SDS011;1322;53.256;10.386;2023-05-10T06:19:03;5.50;;;3.77;;
2624;SDS011;1322;53.256;10.386;2023-05-10T06:21:29;4.27;;;3.87;;
2624;SDS011;1322;53.256;10.386;2023-05-10T06:23:55;5.17;;;4.50;;
2624;SDS011;1322;53.256;10.386;2023-05-10T06:26:21;4.13;;;3.73;;
2624;SDS011;1322;53.256;10.386;2023-05-10T06:28:47;4.40;;;3.97;;
2624;SDS011;1322;53.256;10.386;2023-05-10T06:31:13;5.30;;;3.90;;
2624;SDS011;1322;53.256;10.386;2023-05-10T06:33:39;7.33;;;4.33;;
2624;SDS011;1322;53.256;10.386;2023-05-10T06:36:05;5.50;;;3.80;;
2624;SDS011;1322;53.256;10.386;2023-05-10T06:38:32;7.17;;;4.70;;
2624;SDS011;1322;53.256;10.386;2023-05-10T06:40:58;4.70;;;4.27;;
2624;SDS011;1322;53.256;10.386;2023-05-10T06:43:24;6.77;;;4.13;;
2624;SDS011;1322;53.256;10.386;2023-05-10T06:45:51;5.23;;;3.60;;
2624;SDS011;1322;53.256;10.386;2023-05-10T06:48:17;4.20;;;3.80;;
2624;SDS011;1322;53.256;10.386;2023-05-10T06:50:43;5.83;;;3.53;;
2624;SDS011;1322;53.256;10.386;2023-05-10T06:53:09;5.10;;;3.97;;
2624;SDS011;1322;53.256;10.386;2023-05-10T06:55:37;4.60;;;4.00;;
2624;SDS011;1322;53.256;10.386;2023-05-10T06:58:03;6.20;;;4.67;;
2624;SDS011;1322;53.256;10.386;2023-05-10T07:00:29;5.53;;;3.50;;
2624;SDS011;1322;53.256;10.386;2023-05-10T07:02:55;6.00;;;4.60;;
2624;SDS011;1322;53.256;10.386;2023-05-10T07:05:21;6.17;;;3.63;;
2624;SDS011;1322;53.256;10.386;2023-05-10T07:07:47;5.87;;;4.30;;
2624;SDS011;1322;53.256;10.386;2023-05-10T07:10:13;4.77;;;3.80;;
2624;SDS011;1322;53.256;10.386;2023-05-10T07:12:39;6.10;;;3.93;;
2624;SDS011;1322;53.256;10.386;2023-05-10T07:15:05;4.70;;;4.30;;
2624;SDS011;1322;53.256;10.386;2023-05-10T07:17:31;6.77;;;4.00;;
2624;SDS011;1322;53.256;10.386;2023-05-10T07:19:58;8.77;;;4.73;;
2624;SDS011;1322;53.256;10.386;2023-05-10T07:22:25;4.50;;;3.53;;
2624;SDS011;1322;53.256;10.386;2023-05-10T07:24:51;6.30;;;3.80;;
2624;SDS011;1322;53.256;10.386;2023-05-10T07:27:17;6.17;;;3.97;;
2624;SDS011;1322;53.256;10.386;2023-05-10T07:29:43;5.83;;;5.20;;
2624;SDS011;1322;53.256;10.386;2023-05-10T07:32:09;7.10;;;4.37;;
2624;SDS011;1322;53.256;10.386;2023-05-10T07:34:35;4.97;;;4.40;;
2624;SDS011;1322;53.256;10.386;2023-05-10T07:37:01;4.03;;;3.63;;
2624;SDS011;1322;53.256;10.386;2023-05-10T07:39:27;5.83;;;4.10;;
2624;SDS011;1322;53.256;10.386;2023-05-10T07:41:53;4.40;;;3.83;;
2624;SDS011;1322;53.256;10.386;2023-05-10T07:44:19;6.83;;;4.53;;
2624;SDS011;1322;53.256;10.386;2023-05-10T07:46:46;4.80;;;4.13;;
2624;SDS011;1322;53.256;10.386;2023-05-10T07:49:12;5.40;;;3.80;;
2624;SDS011;1322;53.256;10.386;2023-05-10T07:51:38;6.80;;;4.30;;
2624;SDS011;1322;53.256;10.386;2023-05-10T07:54:04;6.20;;;4.63;;
2624;SDS011;1322;53.256;10.386;2023-05-10T07:56:31;6.43;;;4.50;;
2624;SDS011;1322;53.256;10.386;2023-05-10T07:59:01;6.73;;;4.30;;
2624;SDS011;1322;53.256;10.386;2023-05-10T08:01:32;6.33;;;3.63;;
2624;SDS011;1322;53.256;10.386;2023-05-10T08:03:58;4.03;;;3.60;;
2624;SDS011;1322;53.256;10.386;2023-05-10T08:06:24;5.30;;;4.43;;
2624;SDS011;1322;53.256;10.386;2023-05-10T08:08:54;6.70;;;4.60;;
2624;SDS011;1322;53.256;10.386;2023-05-10T08:11:21;6.93;;;4.90;;
2624;SDS011;1322;53.256;10.386;2023-05-10T08:13:47;12.07;;;6.60;;
2624;SDS011;1322;53.256;10.386;2023-05-10T08:16:14;10.30;;;5.93;;
2624;SDS011;1322;53.256;10.386;2023-05-10T08:18:41;6.87;;;5.90;;
2624;SDS011;1322;53.256;10.386;2023-05-10T08:21:07;7.93;;;6.40;;
2624;SDS011;1322;53.256;10.386;2023-05-10T08:23:33;6.00;;;4.80;;
2624;SDS011;1322;53.256;10.386;2023-05-10T08:25:59;5.10;;;4.40;;
2624;SDS011;1322;53.256;10.386;2023-05-10T08:28:25;7.90;;;4.90;;
2624;SDS011;1322;53.256;10.386;2023-05-10T08:30:52;4.23;;;3.83;;
2624;SDS011;1322;53.256;10.386;2023-05-10T08:33:18;8.10;;;4.83;;
2624;SDS011;1322;53.256;10.386;2023-05-10T08:35:44;7.17;;;4.70;;
2624;SDS011;1322;53.256;10.386;2023-05-10T08:38:10;5.67;;;4.70;;
2624;SDS011;1322;53.256;10.386;2023-05-10T08:40:37;9.17;;;4.40;;
2624;SDS011;1322;53.256;10.386;2023-05-10T08:43:09;9.33;;;4.83;;
2624;SDS011;1322;53.256;10.386;2023-05-10T08:45:37;5.43;;;4.40;;
2624;SDS011;1322;53.256;10.386;2023-05-10T08:48:08;6.07;;;4.50;;
2624;SDS011;1322;53.256;10.386;2023-05-10T08:50:38;5.77;;;4.57;;
2624;SDS011;1322;53.256;10.386;2023-05-10T08:53:06;7.93;;;4.73;;
2624;SDS011;1322;53.256;10.386;2023-05-10T08:55:37;4.93;;;4.53;;
2624;SDS011;1322;53.256;10.386;2023-05-10T08:58:06;7.83;;;5.10;;
2624;SDS011;1322;53.256;10.386;2023-05-10T09:00:33;5.50;;;4.40;;
2624;SDS011;1322;53.256;10.386;2023-05-10T09:03:02;11.13;;;5.70;;
2624;SDS011;1322;53.256;10.386;2023-05-10T09:05:29;6.00;;;4.30;;
2624;SDS011;1322;53.256;10.386;2023-05-10T09:07:55;9.63;;;5.73;;
2624;SDS011;1322;53.256;10.386;2023-05-10T09:10:21;8.03;;;5.00;;
2624;SDS011;1322;53.256;10.386;2023-05-10T09:12:50;10.17;;;5.57;;
2624;SDS011;1322;53.256;10.386;2023-05-10T09:15:17;7.10;;;4.87;;
2624;SDS011;1322;53.256;10.386;2023-05-10T09:17:44;7.50;;;5.10;;
2624;SDS011;1322;53.256;10.386;2023-05-10T09:20:10;8.87;;;5.00;;
2624;SDS011;1322;53.256;10.386;2023-05-10T09:22:36;6.73;;;4.53;;
2624;SDS011;1322;53.256;10.386;2023-05-10T09:27:32;7.83;;;5.40;;
2624;SDS011;1322;53.256;10.386;2023-05-10T09:29:58;7.27;;;5.20;;
2624;SDS011;1322;53.256;10.386;2023-05-10T09:32:37;6.77;;;4.97;;
2624;SDS011;1322;53.256;10.386;2023-05-10T09:35:13;6.70;;;4.97;;
2624;SDS011;1322;53.256;10.386;2023-05-10T09:37:44;11.90;;;5.77;;
2624;SDS011;1322;53.256;10.386;2023-05-10T09:40:12;11.77;;;6.50;;
2624;SDS011;1322;53.256;10.386;2023-05-10T09:42:42;6.83;;;5.00;;
2624;SDS011;1322;53.256;10.386;2023-05-10T09:45:16;5.63;;;4.73;;
2624;SDS011;1322;53.256;10.386;2023-05-10T09:47:42;5.53;;;4.97;;
2624;SDS011;1322;53.256;10.386;2023-05-10T09:50:08;5.23;;;4.30;;
2624;SDS011;1322;53.256;10.386;2023-05-10T09:52:48;5.60;;;4.87;;
2624;SDS011;1322;53.256;10.386;2023-05-10T09:55:14;5.97;;;4.73;;
2624;SDS011;1322;53.256;10.386;2023-05-10T09:57:41;7.83;;;4.83;;
2624;SDS011;1322;53.256;10.386;2023-05-10T10:00:07;8.10;;;5.17;;
2624;SDS011;1322;53.256;10.386;2023-05-10T10:02:35;9.73;;;4.27;;
2624;SDS011;1322;53.256;10.386;2023-05-10T10:05:01;5.80;;;5.17;;
2624;SDS011;1322;53.256;10.386;2023-05-10T10:07:30;5.80;;;5.20;;
2624;SDS011;1322;53.256;10.386;2023-05-10T10:09:56;5.60;;;5.00;;
2624;SDS011;1322;53.256;10.386;2023-05-10T10:12:23;6.67;;;5.50;;
2624;SDS011;1322;53.256;10.386;2023-05-10T10:14:50;6.57;;;5.13;;
2624;SDS011;1322;53.256;10.386;2023-05-10T10:17:17;7.90;;;5.03;;
2624;SDS011;1322;53.256;10.386;2023-05-10T10:19:47;6.50;;;5.40;;
2624;SDS011;1322;53.256;10.386;2023-05-10T10:22:14;5.70;;;5.20;;
2624;SDS011;1322;53.256;10.386;2023-05-10T10:24:40;7.70;;;6.10;;
2624;SDS011;1322;53.256;10.386;2023-05-10T10:27:25;9.00;;;6.43;;
2624;SDS011;1322;53.256;10.386;2023-05-10T10:35:10;7.17;;;5.27;;
2624;SDS011;1322;53.256;10.386;2023-05-10T10:37:43;6.43;;;5.93;;
2624;SDS011;1322;53.256;10.386;2023-05-10T10:40:29;8.60;;;6.00;;
2624;SDS011;1322;53.256;10.386;2023-05-10T10:42:56;7.40;;;6.50;;
2624;SDS011;1322;53.256;10.386;2023-05-10T10:45:23;8.50;;;7.03;;
2624;SDS011;1322;53.256;10.386;2023-05-10T10:48:14;7.27;;;6.57;;
2624;SDS011;1322;53.256;10.386;2023-05-10T10:50:51;6.33;;;5.73;;
2624;SDS011;1322;53.256;10.386;2023-05-10T10:53:21;11.27;;;7.33;;
2624;SDS011;1322;53.256;10.386;2023-05-10T10:55:48;7.50;;;6.40;;
2624;SDS011;1322;53.256;10.386;2023-05-10T10:58:28;7.83;;;6.67;;
2624;SDS011;1322;53.256;10.386;2023-05-10T11:01:16;9.67;;;7.33;;
2624;SDS011;1322;53.256;10.386;2023-05-10T11:06:30;8.17;;;7.37;;
2624;SDS011;1322;53.256;10.386;2023-05-10T11:08:57;7.53;;;6.83;;
2624;SDS011;1322;53.256;10.386;2023-05-10T11:11:23;7.90;;;7.10;;
2624;SDS011;1322;53.256;10.386;2023-05-10T11:13:49;10.67;;;8.27;;
2624;SDS011;1322;53.256;10.386;2023-05-10T11:16:22;7.47;;;6.80;;
2624;SDS011;1322;53.256;10.386;2023-05-10T11:21:32;8.53;;;7.10;;
2624;SDS011;1322;53.256;10.386;2023-05-10T11:23:59;8.10;;;6.87;;
2624;SDS011;1322;53.256;10.386;2023-05-10T11:26:31;10.97;;;8.00;;
2624;SDS011;1322;53.256;10.386;2023-05-10T11:28:57;10.40;;;8.23;;
2624;SDS011;1322;53.256;10.386;2023-05-10T11:31:25;8.63;;;7.70;;
2624;SDS011;1322;53.256;10.386;2023-05-10T11:33:53;8.50;;;7.70;;
2624;SDS011;1322;53.256;10.386;2023-05-10T11:36:23;10.23;;;7.50;;
2624;SDS011;1322;53.256;10.386;2023-05-10T11:38:53;9.80;;;8.23;;
2624;SDS011;1322;53.256;10.386;2023-05-10T11:41:20;10.40;;;7.47;;
2624;SDS011;1322;53.256;10.386;2023-05-10T11:43:52;8.93;;;8.00;;
2624;SDS011;1322;53.256;10.386;2023-05-10T11:46:20;10.10;;;8.13;;
2624;SDS011;1322;53.256;10.386;2023-05-10T11:48:48;10.57;;;8.03;;
2624;SDS011;1322;53.256;10.386;2023-05-10T11:51:19;9.30;;;8.40;;
2624;SDS011;1322;53.256;10.386;2023-05-10T11:53:49;9.73;;;7.33;;
2624;SDS011;1322;53.256;10.386;2023-05-10T11:56:16;8.30;;;7.50;;
2624;SDS011;1322;53.256;10.386;2023-05-10T11:58:42;10.90;;;7.67;;
2624;SDS011;1322;53.256;10.386;2023-05-10T12:01:08;10.30;;;8.00;;
2624;SDS011;1322;53.256;10.386;2023-05-10T12:03:35;10.60;;;8.03;;
2624;SDS011;1322;53.256;10.386;2023-05-10T12:06:01;9.20;;;7.40;;
2624;SDS011;1322;53.256;10.386;2023-05-10T12:08:28;9.17;;;7.43;;
2624;SDS011;1322;53.256;10.386;2023-05-10T12:11:05;13.43;;;10.40;;
2624;SDS011;1322;53.256;10.386;2023-05-10T12:13:36;10.40;;;8.07;;
2624;SDS011;1322;53.256;10.386;2023-05-10T12:16:13;7.60;;;6.80;;
2624;SDS011;1322;53.256;10.386;2023-05-10T12:18:43;9.03;;;7.20;;
2624;SDS011;1322;53.256;10.386;2023-05-10T12:21:10;12.30;;;8.10;;
2624;SDS011;1322;53.256;10.386;2023-05-10T12:23:36;9.50;;;7.00;;
2624;SDS011;1322;53.256;10.386;2023-05-10T12:26:03;10.30;;;7.77;;
2624;SDS011;1322;53.256;10.386;2023-05-10T12:28:29;7.53;;;6.73;;
2624;SDS011;1322;53.256;10.386;2023-05-10T12:30:57;8.40;;;7.60;;
2624;SDS011;1322;53.256;10.386;2023-05-10T12:33:23;9.53;;;7.83;;
2624;SDS011;1322;53.256;10.386;2023-05-10T12:35:50;9.83;;;8.27;;
2624;SDS011;1322;53.256;10.386;2023-05-10T12:38:51;8.97;;;7.90;;
2624;SDS011;1322;53.256;10.386;2023-05-10T12:41:13;19.47;;;16.93;;
2624;SDS011;1322;53.256;10.386;2023-05-10T12:43:41;9.43;;;7.40;;
2624;SDS011;1322;53.256;10.386;2023-05-10T12:46:08;10.70;;;7.63;;
2624;SDS011;1322;53.256;10.386;2023-05-10T12:48:38;9.27;;;7.00;;
2624;SDS011;1322;53.256;10.386;2023-05-10T12:51:05;7.73;;;6.93;;
2624;SDS011;1322;53.256;10.386;2023-05-10T12:53:34;8.30;;;6.40;;
2624;SDS011;1322;53.256;10.386;2023-05-10T12:56:00;10.40;;;8.47;;
2624;SDS011;1322;53.256;10.386;2023-05-10T12:58:26;7.33;;;6.57;;
2624;SDS011;1322;53.256;10.386;2023-05-10T13:00:52;7.17;;;6.47;;
2624;SDS011;1322;53.256;10.386;2023-05-10T13:03:18;6.83;;;6.20;;
2624;SDS011;1322;53.256;10.386;2023-05-10T13:05:44;6.83;;;6.13;;
2624;SDS011;1322;53.256;10.386;2023-05-10T13:08:10;7.30;;;6.30;;
2624;SDS011;1322;53.256;10.386;2023-05-10T13:10:37;9.80;;;7.90;;
2624;SDS011;1322;53.256;10.386;2023-05-10T13:13:03;24.60;;;18.57;;
2624;SDS011;1322;53.256;10.386;2023-05-10T13:15:28;7.27;;;6.57;;
2624;SDS011;1322;53.256;10.386;2023-05-10T13:17:55;6.50;;;5.90;;
2624;SDS011;1322;53.256;10.386;2023-05-10T13:20:21;7.00;;;5.87;;
2624;SDS011;1322;53.256;10.386;2023-05-10T13:22:47;6.37;;;5.77;;
2624;SDS011;1322;53.256;10.386;2023-05-10T13:25:13;6.53;;;5.83;;
2624;SDS011;1322;53.256;10.386;2023-05-10T13:27:39;6.60;;;5.97;;
2624;SDS011;1322;53.256;10.386;2023-05-10T13:30:06;6.50;;;5.50;;
2624;SDS011;1322;53.256;10.386;2023-05-10T13:32:32;6.60;;;5.90;;
2624;SDS011;1322;53.256;10.386;2023-05-10T13:34:58;7.93;;;5.53;;
2624;SDS011;1322;53.256;10.386;2023-05-10T13:37:24;6.50;;;5.77;;
2624;SDS011;1322;53.256;10.386;2023-05-10T13:39:50;6.97;;;5.30;;
2624;SDS011;1322;53.256;10.386;2023-05-10T13:42:17;5.73;;;5.23;;
2624;SDS011;1322;53.256;10.386;2023-05-10T13:44:43;4.83;;;4.43;;
2624;SDS011;1322;53.256;10.386;2023-05-10T13:47:09;5.33;;;4.70;;
2624;SDS011;1322;53.256;10.386;2023-05-10T13:49:36;5.50;;;5.00;;
2624;SDS011;1322;53.256;10.386;2023-05-10T13:52:02;6.10;;;5.20;;
2624;SDS011;1322;53.256;10.386;2023-05-10T13:54:31;6.47;;;5.70;;
2624;SDS011;1322;53.256;10.386;2023-05-10T13:56:57;5.77;;;5.20;;
2624;SDS011;1322;53.256;10.386;2023-05-10T13:59:24;5.57;;;5.07;;
2624;SDS011;1322;53.256;10.386;2023-05-10T14:01:50;5.90;;;5.27;;
2624;SDS011;1322;53.256;10.386;2023-05-10T14:04:16;5.50;;;4.90;;
2624;SDS011;1322;53.256;10.386;2023-05-10T14:06:42;5.53;;;4.50;;
2624;SDS011;1322;53.256;10.386;2023-05-10T14:09:08;6.83;;;5.30;;
2624;SDS011;1322;53.256;10.386;2023-05-10T14:11:34;4.53;;;4.13;;
2624;SDS011;1322;53.256;10.386;2023-05-10T14:14:00;5.27;;;4.77;;
2624;SDS011;1322;53.256;10.386;2023-05-10T14:16:26;14.17;;;10.80;;
2624;SDS011;1322;53.256;10.386;2023-05-10T14:18:52;18.70;;;14.23;;
2624;SDS011;1322;53.256;10.386;2023-05-10T14:21:18;6.20;;;5.60;;
2624;SDS011;1322;53.256;10.386;2023-05-10T14:23:44;7.03;;;4.30;;
2624;SDS011;1322;53.256;10.386;2023-05-10T14:26:10;5.37;;;4.77;;
2624;SDS011;1322;53.256;10.386;2023-05-10T14:28:37;4.73;;;4.33;;
2624;SDS011;1322;53.256;10.386;2023-05-10T14:31:03;4.60;;;4.17;;
2624;SDS011;1322;53.256;10.386;2023-05-10T14:33:30;6.00;;;4.90;;
2624;SDS011;1322;53.256;10.386;2023-05-10T14:35:56;5.30;;;4.80;;
2624;SDS011;1322;53.256;10.386;2023-05-10T14:38:22;4.90;;;4.40;;
2624;SDS011;1322;53.256;10.386;2023-05-10T14:40:48;4.20;;;3.80;;
2624;SDS011;1322;53.256;10.386;2023-05-10T14:43:14;4.17;;;3.77;;
2624;SDS011;1322;53.256;10.386;2023-05-10T14:45:41;4.00;;;3.70;;
2624;SDS011;1322;53.256;10.386;2023-05-10T14:48:06;4.77;;;3.77;;
2624;SDS011;1322;53.256;10.386;2023-05-10T14:50:36;4.87;;;4.47;;
2624;SDS011;1322;53.256;10.386;2023-05-10T14:53:02;9.23;;;6.93;;
2624;SDS011;1322;53.256;10.386;2023-05-10T14:55:28;3.80;;;3.47;;
2624;SDS011;1322;53.256;10.386;2023-05-10T14:57:54;4.10;;;3.70;;
2624;SDS011;1322;53.256;10.386;2023-05-10T15:00:21;4.50;;;3.90;;
2624;SDS011;1322;53.256;10.386;2023-05-10T15:02:47;3.93;;;3.60;;
2624;SDS011;1322;53.256;10.386;2023-05-10T15:05:13;4.63;;;3.97;;
2624;SDS011;1322;53.256;10.386;2023-05-10T15:07:40;5.07;;;3.13;;
2624;SDS011;1322;53.256;10.386;2023-05-10T15:10:08;5.00;;;3.47;;
2624;SDS011;1322;53.256;10.386;2023-05-10T15:12:34;5.87;;;4.90;;
2624;SDS011;1322;53.256;10.386;2023-05-10T15:15:00;3.63;;;3.30;;
2624;SDS011;1322;53.256;10.386;2023-05-10T15:17:27;3.70;;;3.40;;
2624;SDS011;1322;53.256;10.386;2023-05-10T15:19:53;3.60;;;2.97;;
2624;SDS011;1322;53.256;10.386;2023-05-10T15:22:19;3.47;;;2.90;;
2624;SDS011;1322;53.256;10.386;2023-05-10T15:24:46;3.57;;;3.27;;
2624;SDS011;1322;53.256;10.386;2023-05-10T15:27:12;3.27;;;2.97;;
2624;SDS011;1322;53.256;10.386;2023-05-10T15:29:38;3.20;;;2.90;;
2624;SDS011;1322;53.256;10.386;2023-05-10T15:32:04;4.37;;;3.53;;
2624;SDS011;1322;53.256;10.386;2023-05-10T15:34:30;3.50;;;3.20;;